sensor_id;sensor_type;location;lat;lon;timestamp;P1;durP1;ratioP1;P2;durP2;ratioP2
19907;SDS011;10116;53.112;7.356;2022-11-20T00:01:23;4.20;;;3.90;;
19907;SDS011;10116;53.112;7.356;2022-11-20T00:03:54;3.30;;;3.10;;
19907;SDS011;10116;53.112;7.356;2022-11-20T00:06:20;3.70;;;3.40;;
19907;SDS011;10116;53.112;7.356;2022-11-20T00:08:47;4.00;;;3.53;;
19907;SDS011;10116;53.112;7.356;2022-11-20T00:11:14;4.63;;;4.27;;
19907;SDS011;10116;53.112;7.356;2022-11-20T00:13:44;4.03;;;3.50;;
19907;SDS011;10116;53.112;7.356;2022-11-20T00:16:12;4.10;;;3.80;;
19907;SDS011;10116;53.112;7.356;2022-11-20T00:18:39;3.70;;;3.40;;
19907;SDS011;10116;53.112;7.356;2022-11-20T00:21:09;6.20;;;3.67;;
19907;SDS011;10116;53.112;7.356;2022-11-20T00:23:37;4.30;;;4.00;;
19907;SDS011;10116;53.112;7.356;2022-11-20T00:26:03;3.87;;;3.60;;
19907;SDS011;10116;53.112;7.356;2022-11-20T00:28:34;4.10;;;3.80;;
19907;SDS011;10116;53.112;7.356;2022-11-20T00:31:00;3.63;;;3.43;;
19907;SDS011;10116;53.112;7.356;2022-11-20T00:33:27;3.63;;;3.40;;
19907;SDS011;10116;53.112;7.356;2022-11-20T00:35:53;3.93;;;3.60;;
19907;SDS011;10116;53.112;7.356;2022-11-20T00:38:23;4.40;;;4.00;;
19907;SDS011;10116;53.112;7.356;2022-11-20T00:40:54;4.40;;;3.60;;
19907;SDS011;10116;53.112;7.356;2022-11-20T00:43:20;4.07;;;3.77;;
19907;SDS011;10116;53.112;7.356;2022-11-20T00:45:46;3.43;;;3.23;;
19907;SDS011;10116;53.112;7.356;2022-11-20T00:48:11;3.90;;;3.70;;
19907;SDS011;10116;53.112;7.356;2022-11-20T00:50:37;3.60;;;3.40;;
19907;SDS011;10116;53.112;7.356;2022-11-20T00:53:03;3.50;;;3.30;;
19907;SDS011;10116;53.112;7.356;2022-11-20T00:55:29;3.63;;;3.43;;
19907;SDS011;10116;53.112;7.356;2022-11-20T00:57:55;3.73;;;3.43;;
19907;SDS011;10116;53.112;7.356;2022-11-20T01:00:20;3.20;;;3.00;;
19907;SDS011;10116;53.112;7.356;2022-11-20T01:02:46;3.57;;;3.33;;
19907;SDS011;10116;53.112;7.356;2022-11-20T01:05:11;3.50;;;3.03;;
19907;SDS011;10116;53.112;7.356;2022-11-20T01:07:37;3.60;;;3.40;;
19907;SDS011;10116;53.112;7.356;2022-11-20T01:10:03;3.77;;;3.50;;
19907;SDS011;10116;53.112;7.356;2022-11-20T01:12:28;3.60;;;3.30;;
19907;SDS011;10116;53.112;7.356;2022-11-20T01:14:54;4.00;;;3.70;;
19907;SDS011;10116;53.112;7.356;2022-11-20T01:17:20;4.50;;;4.00;;
19907;SDS011;10116;53.112;7.356;2022-11-20T01:19:47;3.80;;;3.60;;
19907;SDS011;10116;53.112;7.356;2022-11-20T01:22:14;4.10;;;3.80;;
19907;SDS011;10116;53.112;7.356;2022-11-20T01:24:40;3.67;;;3.47;;
19907;SDS011;10116;53.112;7.356;2022-11-20T01:27:05;3.50;;;3.30;;
19907;SDS011;10116;53.112;7.356;2022-11-20T01:29:31;3.50;;;3.30;;
19907;SDS011;10116;53.112;7.356;2022-11-20T01:31:56;3.33;;;3.13;;
19907;SDS011;10116;53.112;7.356;2022-11-20T01:34:22;3.47;;;3.17;;
19907;SDS011;10116;53.112;7.356;2022-11-20T01:36:48;3.70;;;3.40;;
19907;SDS011;10116;53.112;7.356;2022-11-20T01:39:22;3.80;;;3.50;;
19907;SDS011;10116;53.112;7.356;2022-11-20T01:41:49;3.40;;;3.13;;
19907;SDS011;10116;53.112;7.356;2022-11-20T01:47:13;3.17;;;2.97;;
19907;SDS011;10116;53.112;7.356;2022-11-20T01:49:51;3.70;;;3.40;;
19907;SDS011;10116;53.112;7.356;2022-11-20T01:52:26;3.20;;;3.00;;
19907;SDS011;10116;53.112;7.356;2022-11-20T01:55:00;3.40;;;3.10;;
19907;SDS011;10116;53.112;7.356;2022-11-20T01:57:30;3.40;;;3.10;;
19907;SDS011;10116;53.112;7.356;2022-11-20T02:00:00;3.27;;;3.07;;
19907;SDS011;10116;53.112;7.356;2022-11-20T02:02:30;3.67;;;3.37;;
19907;SDS011;10116;53.112;7.356;2022-11-20T02:04:56;3.00;;;2.90;;
19907;SDS011;10116;53.112;7.356;2022-11-20T02:07:28;3.10;;;2.90;;
19907;SDS011;10116;53.112;7.356;2022-11-20T02:09:54;3.40;;;3.20;;
19907;SDS011;10116;53.112;7.356;2022-11-20T02:12:19;3.30;;;3.10;;
19907;SDS011;10116;53.112;7.356;2022-11-20T02:15:04;3.40;;;3.20;;
19907;SDS011;10116;53.112;7.356;2022-11-20T02:17:30;3.67;;;3.37;;
19907;SDS011;10116;53.112;7.356;2022-11-20T02:19:55;2.97;;;2.80;;
19907;SDS011;10116;53.112;7.356;2022-11-20T02:22:24;2.90;;;2.80;;
19907;SDS011;10116;53.112;7.356;2022-11-20T02:24:56;3.40;;;2.90;;
19907;SDS011;10116;53.112;7.356;2022-11-20T02:27:25;2.97;;;2.87;;
19907;SDS011;10116;53.112;7.356;2022-11-20T02:32:29;3.23;;;3.00;;
19907;SDS011;10116;53.112;7.356;2022-11-20T02:34:56;3.37;;;3.17;;
19907;SDS011;10116;53.112;7.356;2022-11-20T02:37:22;3.70;;;3.50;;
19907;SDS011;10116;53.112;7.356;2022-11-20T02:39:50;3.20;;;3.00;;
19907;SDS011;10116;53.112;7.356;2022-11-20T02:42:17;3.03;;;2.93;;
19907;SDS011;10116;53.112;7.356;2022-11-20T02:44:43;2.77;;;2.60;;
19907;SDS011;10116;53.112;7.356;2022-11-20T02:47:08;3.30;;;3.00;;
19907;SDS011;10116;53.112;7.356;2022-11-20T02:49:34;3.40;;;3.20;;
19907;SDS011;10116;53.112;7.356;2022-11-20T02:52:00;3.27;;;3.07;;
19907;SDS011;10116;53.112;7.356;2022-11-20T02:54:26;2.87;;;2.77;;
19907;SDS011;10116;53.112;7.356;2022-11-20T02:56:52;3.30;;;3.00;;
19907;SDS011;10116;53.112;7.356;2022-11-20T02:59:17;2.97;;;2.87;;
19907;SDS011;10116;53.112;7.356;2022-11-20T03:01:43;3.40;;;3.10;;
19907;SDS011;10116;53.112;7.356;2022-11-20T03:04:08;2.60;;;2.50;;
19907;SDS011;10116;53.112;7.356;2022-11-20T03:06:34;3.50;;;3.30;;
19907;SDS011;10116;53.112;7.356;2022-11-20T03:09:00;3.63;;;3.43;;
19907;SDS011;10116;53.112;7.356;2022-11-20T03:11:26;3.23;;;3.03;;
19907;SDS011;10116;53.112;7.356;2022-11-20T03:13:52;3.00;;;2.80;;
19907;SDS011;10116;53.112;7.356;2022-11-20T03:16:18;3.37;;;3.17;;
19907;SDS011;10116;53.112;7.356;2022-11-20T03:18:45;2.90;;;2.77;;
19907;SDS011;10116;53.112;7.356;2022-11-20T03:21:12;3.00;;;2.80;;
19907;SDS011;10116;53.112;7.356;2022-11-20T03:23:38;3.63;;;3.33;;
19907;SDS011;10116;53.112;7.356;2022-11-20T03:28:37;2.73;;;2.63;;
19907;SDS011;10116;53.112;7.356;2022-11-20T03:31:07;2.80;;;2.60;;
19907;SDS011;10116;53.112;7.356;2022-11-20T03:33:38;3.20;;;3.00;;
19907;SDS011;10116;53.112;7.356;2022-11-20T03:36:06;3.30;;;3.10;;
19907;SDS011;10116;53.112;7.356;2022-11-20T03:38:33;3.50;;;3.23;;
19907;SDS011;10116;53.112;7.356;2022-11-20T03:41:18;3.10;;;2.90;;
19907;SDS011;10116;53.112;7.356;2022-11-20T03:43:49;3.00;;;2.80;;
19907;SDS011;10116;53.112;7.356;2022-11-20T03:46:18;2.97;;;2.87;;
19907;SDS011;10116;53.112;7.356;2022-11-20T03:48:44;3.40;;;3.20;;
19907;SDS011;10116;53.112;7.356;2022-11-20T03:51:10;3.30;;;3.10;;
19907;SDS011;10116;53.112;7.356;2022-11-20T03:53:38;3.00;;;2.80;;
19907;SDS011;10116;53.112;7.356;2022-11-20T03:56:04;3.00;;;2.90;;
19907;SDS011;10116;53.112;7.356;2022-11-20T03:58:31;3.47;;;3.17;;
19907;SDS011;10116;53.112;7.356;2022-11-20T04:01:03;3.10;;;2.90;;
19907;SDS011;10116;53.112;7.356;2022-11-20T04:03:40;2.87;;;2.77;;
19907;SDS011;10116;53.112;7.356;2022-11-20T04:06:08;2.60;;;2.40;;
19907;SDS011;10116;53.112;7.356;2022-11-20T04:08:45;2.70;;;2.50;;
19907;SDS011;10116;53.112;7.356;2022-11-20T04:11:14;3.10;;;2.90;;
19907;SDS011;10116;53.112;7.356;2022-11-20T04:13:51;3.03;;;2.80;;
19907;SDS011;10116;53.112;7.356;2022-11-20T04:16:19;3.10;;;2.90;;
19907;SDS011;10116;53.112;7.356;2022-11-20T04:18:45;2.77;;;2.67;;
19907;SDS011;10116;53.112;7.356;2022-11-20T04:21:11;3.10;;;2.90;;
19907;SDS011;10116;53.112;7.356;2022-11-20T04:23:37;3.00;;;2.80;;
19907;SDS011;10116;53.112;7.356;2022-11-20T04:26:04;3.10;;;2.90;;
19907;SDS011;10116;53.112;7.356;2022-11-20T04:28:34;2.50;;;2.40;;
19907;SDS011;10116;53.112;7.356;2022-11-20T04:31:07;2.67;;;2.57;;
19907;SDS011;10116;53.112;7.356;2022-11-20T04:33:34;2.80;;;2.60;;
19907;SDS011;10116;53.112;7.356;2022-11-20T04:36:02;3.17;;;2.97;;
19907;SDS011;10116;53.112;7.356;2022-11-20T04:38:32;2.63;;;2.53;;
19907;SDS011;10116;53.112;7.356;2022-11-20T04:41:01;2.80;;;2.70;;
19907;SDS011;10116;53.112;7.356;2022-11-20T04:43:28;3.00;;;2.80;;
19907;SDS011;10116;53.112;7.356;2022-11-20T04:45:55;2.57;;;2.47;;
19907;SDS011;10116;53.112;7.356;2022-11-20T04:48:22;3.03;;;2.83;;
19907;SDS011;10116;53.112;7.356;2022-11-20T04:50:48;2.93;;;2.83;;
19907;SDS011;10116;53.112;7.356;2022-11-20T04:53:14;2.57;;;2.43;;
19907;SDS011;10116;53.112;7.356;2022-11-20T04:55:39;2.70;;;2.60;;
19907;SDS011;10116;53.112;7.356;2022-11-20T04:58:05;2.70;;;2.57;;
19907;SDS011;10116;53.112;7.356;2022-11-20T05:00:30;2.47;;;2.37;;
19907;SDS011;10116;53.112;7.356;2022-11-20T05:02:56;2.37;;;2.27;;
19907;SDS011;10116;53.112;7.356;2022-11-20T05:05:22;2.87;;;2.67;;
19907;SDS011;10116;53.112;7.356;2022-11-20T05:07:47;2.47;;;2.37;;
19907;SDS011;10116;53.112;7.356;2022-11-20T05:10:13;2.40;;;2.30;;
19907;SDS011;10116;53.112;7.356;2022-11-20T05:12:39;3.13;;;2.90;;
19907;SDS011;10116;53.112;7.356;2022-11-20T05:15:04;2.40;;;2.30;;
19907;SDS011;10116;53.112;7.356;2022-11-20T05:17:30;2.87;;;2.73;;
19907;SDS011;10116;53.112;7.356;2022-11-20T05:19:56;2.80;;;2.70;;
19907;SDS011;10116;53.112;7.356;2022-11-20T05:22:21;2.20;;;2.10;;
19907;SDS011;10116;53.112;7.356;2022-11-20T05:24:47;2.30;;;2.20;;
19907;SDS011;10116;53.112;7.356;2022-11-20T05:27:12;2.57;;;2.37;;
19907;SDS011;10116;53.112;7.356;2022-11-20T05:29:38;2.67;;;2.50;;
19907;SDS011;10116;53.112;7.356;2022-11-20T05:32:04;2.60;;;2.50;;
19907;SDS011;10116;53.112;7.356;2022-11-20T05:34:31;2.17;;;2.07;;
19907;SDS011;10116;53.112;7.356;2022-11-20T05:36:56;2.70;;;2.50;;
19907;SDS011;10116;53.112;7.356;2022-11-20T05:39:22;2.60;;;2.43;;
19907;SDS011;10116;53.112;7.356;2022-11-20T05:41:48;2.60;;;2.50;;
19907;SDS011;10116;53.112;7.356;2022-11-20T05:44:33;2.40;;;2.30;;
19907;SDS011;10116;53.112;7.356;2022-11-20T05:46:59;2.20;;;2.10;;
19907;SDS011;10116;53.112;7.356;2022-11-20T05:49:24;2.73;;;2.63;;
19907;SDS011;10116;53.112;7.356;2022-11-20T05:51:50;2.40;;;2.30;;
19907;SDS011;10116;53.112;7.356;2022-11-20T05:54:15;2.60;;;2.50;;
19907;SDS011;10116;53.112;7.356;2022-11-20T05:56:41;3.83;;;2.90;;
19907;SDS011;10116;53.112;7.356;2022-11-20T05:59:07;2.63;;;2.43;;
19907;SDS011;10116;53.112;7.356;2022-11-20T06:01:32;2.60;;;2.50;;
19907;SDS011;10116;53.112;7.356;2022-11-20T06:03:58;2.40;;;2.30;;
19907;SDS011;10116;53.112;7.356;2022-11-20T06:06:24;3.00;;;2.80;;
19907;SDS011;10116;53.112;7.356;2022-11-20T06:08:50;2.63;;;2.53;;
19907;SDS011;10116;53.112;7.356;2022-11-20T06:11:16;3.00;;;2.80;;
19907;SDS011;10116;53.112;7.356;2022-11-20T06:13:43;2.30;;;2.20;;
19907;SDS011;10116;53.112;7.356;2022-11-20T06:16:10;2.50;;;2.40;;
19907;SDS011;10116;53.112;7.356;2022-11-20T06:18:37;2.50;;;2.40;;
19907;SDS011;10116;53.112;7.356;2022-11-20T06:21:13;2.47;;;2.33;;
19907;SDS011;10116;53.112;7.356;2022-11-20T06:23:40;2.63;;;2.40;;
19907;SDS011;10116;53.112;7.356;2022-11-20T06:26:10;2.70;;;2.60;;
19907;SDS011;10116;53.112;7.356;2022-11-20T06:28:40;2.60;;;2.50;;
19907;SDS011;10116;53.112;7.356;2022-11-20T06:31:06;2.40;;;2.30;;
19907;SDS011;10116;53.112;7.356;2022-11-20T06:33:32;2.37;;;2.27;;
19907;SDS011;10116;53.112;7.356;2022-11-20T06:35:59;2.70;;;2.60;;
19907;SDS011;10116;53.112;7.356;2022-11-20T06:38:26;2.47;;;2.37;;
19907;SDS011;10116;53.112;7.356;2022-11-20T06:40:52;2.73;;;2.53;;
19907;SDS011;10116;53.112;7.356;2022-11-20T06:43:18;2.23;;;2.13;;
19907;SDS011;10116;53.112;7.356;2022-11-20T06:45:43;2.37;;;2.27;;
19907;SDS011;10116;53.112;7.356;2022-11-20T06:48:09;2.30;;;2.20;;
19907;SDS011;10116;53.112;7.356;2022-11-20T06:50:38;2.60;;;2.40;;
19907;SDS011;10116;53.112;7.356;2022-11-20T06:53:04;2.87;;;2.57;;
19907;SDS011;10116;53.112;7.356;2022-11-20T06:55:30;2.33;;;2.23;;
19907;SDS011;10116;53.112;7.356;2022-11-20T06:57:56;2.37;;;2.27;;
19907;SDS011;10116;53.112;7.356;2022-11-20T07:00:23;2.07;;;1.97;;
19907;SDS011;10116;53.112;7.356;2022-11-20T07:02:49;2.40;;;2.30;;
19907;SDS011;10116;53.112;7.356;2022-11-20T07:05:15;2.30;;;2.20;;
19907;SDS011;10116;53.112;7.356;2022-11-20T07:07:41;2.40;;;2.30;;
19907;SDS011;10116;53.112;7.356;2022-11-20T07:10:07;2.33;;;2.23;;
19907;SDS011;10116;53.112;7.356;2022-11-20T07:12:33;2.80;;;2.60;;
19907;SDS011;10116;53.112;7.356;2022-11-20T07:14:58;2.50;;;2.40;;
19907;SDS011;10116;53.112;7.356;2022-11-20T07:17:24;3.03;;;2.83;;
19907;SDS011;10116;53.112;7.356;2022-11-20T07:19:50;2.53;;;2.40;;
19907;SDS011;10116;53.112;7.356;2022-11-20T07:22:15;2.30;;;2.20;;
19907;SDS011;10116;53.112;7.356;2022-11-20T07:24:41;3.33;;;2.63;;
19907;SDS011;10116;53.112;7.356;2022-11-20T07:27:06;2.23;;;2.13;;
19907;SDS011;10116;53.112;7.356;2022-11-20T07:29:32;2.80;;;2.60;;
19907;SDS011;10116;53.112;7.356;2022-11-20T07:31:57;2.97;;;2.67;;
19907;SDS011;10116;53.112;7.356;2022-11-20T07:34:23;2.40;;;2.30;;
19907;SDS011;10116;53.112;7.356;2022-11-20T07:36:48;2.60;;;2.40;;
19907;SDS011;10116;53.112;7.356;2022-11-20T07:39:14;2.33;;;2.13;;
19907;SDS011;10116;53.112;7.356;2022-11-20T07:41:40;3.00;;;2.30;;
19907;SDS011;10116;53.112;7.356;2022-11-20T07:44:05;2.60;;;2.50;;
19907;SDS011;10116;53.112;7.356;2022-11-20T07:46:31;2.63;;;2.53;;
19907;SDS011;10116;53.112;7.356;2022-11-20T07:48:56;3.07;;;2.87;;
19907;SDS011;10116;53.112;7.356;2022-11-20T07:51:22;2.97;;;2.77;;
19907;SDS011;10116;53.112;7.356;2022-11-20T07:53:50;2.80;;;2.70;;
19907;SDS011;10116;53.112;7.356;2022-11-20T07:56:16;3.03;;;2.80;;
19907;SDS011;10116;53.112;7.356;2022-11-20T07:58:42;4.40;;;2.80;;
19907;SDS011;10116;53.112;7.356;2022-11-20T08:01:07;2.90;;;2.70;;
19907;SDS011;10116;53.112;7.356;2022-11-20T08:03:33;2.67;;;2.57;;
19907;SDS011;10116;53.112;7.356;2022-11-20T08:05:59;2.80;;;2.60;;
19907;SDS011;10116;53.112;7.356;2022-11-20T08:08:26;2.50;;;2.40;;
19907;SDS011;10116;53.112;7.356;2022-11-20T08:10:52;2.60;;;2.50;;
19907;SDS011;10116;53.112;7.356;2022-11-20T08:13:37;3.17;;;2.87;;
19907;SDS011;10116;53.112;7.356;2022-11-20T08:16:21;2.53;;;2.43;;
19907;SDS011;10116;53.112;7.356;2022-11-20T08:18:47;3.83;;;3.53;;
19907;SDS011;10116;53.112;7.356;2022-11-20T08:21:12;2.50;;;2.40;;
19907;SDS011;10116;53.112;7.356;2022-11-20T08:23:38;2.77;;;2.57;;
19907;SDS011;10116;53.112;7.356;2022-11-20T08:26:04;3.10;;;2.90;;
19907;SDS011;10116;53.112;7.356;2022-11-20T08:28:29;3.40;;;2.67;;
19907;SDS011;10116;53.112;7.356;2022-11-20T08:30:59;2.67;;;2.47;;
19907;SDS011;10116;53.112;7.356;2022-11-20T08:33:25;2.50;;;2.30;;
19907;SDS011;10116;53.112;7.356;2022-11-20T08:35:51;3.27;;;3.07;;
19907;SDS011;10116;53.112;7.356;2022-11-20T08:38:16;2.93;;;2.80;;
19907;SDS011;10116;53.112;7.356;2022-11-20T08:40:42;3.20;;;3.00;;
19907;SDS011;10116;53.112;7.356;2022-11-20T08:43:28;2.80;;;2.60;;
19907;SDS011;10116;53.112;7.356;2022-11-20T08:45:55;2.60;;;2.50;;
19907;SDS011;10116;53.112;7.356;2022-11-20T08:48:21;2.30;;;2.20;;
19907;SDS011;10116;53.112;7.356;2022-11-20T08:50:47;3.00;;;2.80;;
19907;SDS011;10116;53.112;7.356;2022-11-20T08:53:12;3.30;;;3.10;;
19907;SDS011;10116;53.112;7.356;2022-11-20T08:55:38;2.93;;;2.73;;
19907;SDS011;10116;53.112;7.356;2022-11-20T08:58:04;2.77;;;2.67;;
19907;SDS011;10116;53.112;7.356;2022-11-20T09:00:30;3.00;;;2.77;;
19907;SDS011;10116;53.112;7.356;2022-11-20T09:02:57;3.80;;;2.70;;
19907;SDS011;10116;53.112;7.356;2022-11-20T09:05:23;4.67;;;2.90;;
19907;SDS011;10116;53.112;7.356;2022-11-20T09:07:49;2.83;;;2.63;;
19907;SDS011;10116;53.112;7.356;2022-11-20T09:10:15;2.40;;;2.30;;
19907;SDS011;10116;53.112;7.356;2022-11-20T09:12:40;2.90;;;2.70;;
19907;SDS011;10116;53.112;7.356;2022-11-20T09:15:06;4.07;;;3.23;;
19907;SDS011;10116;53.112;7.356;2022-11-20T09:17:32;2.83;;;2.63;;
19907;SDS011;10116;53.112;7.356;2022-11-20T09:19:58;3.17;;;2.33;;
19907;SDS011;10116;53.112;7.356;2022-11-20T09:22:23;5.77;;;3.20;;
19907;SDS011;10116;53.112;7.356;2022-11-20T09:24:49;3.63;;;2.37;;
19907;SDS011;10116;53.112;7.356;2022-11-20T09:27:14;2.93;;;2.40;;
19907;SDS011;10116;53.112;7.356;2022-11-20T09:29:45;2.50;;;2.30;;
19907;SDS011;10116;53.112;7.356;2022-11-20T09:32:10;2.40;;;2.20;;
19907;SDS011;10116;53.112;7.356;2022-11-20T09:34:36;2.73;;;2.53;;
19907;SDS011;10116;53.112;7.356;2022-11-20T09:37:02;2.93;;;2.47;;
19907;SDS011;10116;53.112;7.356;2022-11-20T09:39:27;5.17;;;2.30;;
19907;SDS011;10116;53.112;7.356;2022-11-20T09:42:00;6.03;;;2.53;;
19907;SDS011;10116;53.112;7.356;2022-11-20T09:47:11;4.30;;;3.07;;
19907;SDS011;10116;53.112;7.356;2022-11-20T09:50:02;7.17;;;3.17;;
19907;SDS011;10116;53.112;7.356;2022-11-20T09:55:32;2.83;;;2.57;;
19907;SDS011;10116;53.112;7.356;2022-11-20T09:58:00;2.53;;;2.33;;
19907;SDS011;10116;53.112;7.356;2022-11-20T10:00:30;2.67;;;2.47;;
19907;SDS011;10116;53.112;7.356;2022-11-20T10:03:13;2.20;;;2.10;;
19907;SDS011;10116;53.112;7.356;2022-11-20T10:05:48;2.40;;;2.30;;
19907;SDS011;10116;53.112;7.356;2022-11-20T10:08:19;2.17;;;2.03;;
19907;SDS011;10116;53.112;7.356;2022-11-20T10:10:57;3.83;;;2.63;;
19907;SDS011;10116;53.112;7.356;2022-11-20T10:16:15;2.77;;;2.50;;
19907;SDS011;10116;53.112;7.356;2022-11-20T10:27:33;2.13;;;2.03;;
19907;SDS011;10116;53.112;7.356;2022-11-20T10:30:22;2.77;;;2.57;;
19907;SDS011;10116;53.112;7.356;2022-11-20T10:33:24;2.80;;;2.40;;
19907;SDS011;10116;53.112;7.356;2022-11-20T10:35:45;2.23;;;2.03;;
19907;SDS011;10116;53.112;7.356;2022-11-20T10:38:21;2.30;;;2.20;;
19907;SDS011;10116;53.112;7.356;2022-11-20T10:40:52;5.80;;;5.33;;
19907;SDS011;10116;53.112;7.356;2022-11-20T10:43:44;4.43;;;3.10;;
19907;SDS011;10116;53.112;7.356;2022-11-20T10:46:15;6.37;;;3.13;;
19907;SDS011;10116;53.112;7.356;2022-11-20T10:48:44;3.57;;;3.23;;
19907;SDS011;10116;53.112;7.356;2022-11-20T10:56:46;7.13;;;3.40;;
19907;SDS011;10116;53.112;7.356;2022-11-20T11:02:24;6.30;;;2.77;;
19907;SDS011;10116;53.112;7.356;2022-11-20T11:04:57;9.00;;;3.00;;
19907;SDS011;10116;53.112;7.356;2022-11-20T11:07:36;14.20;;;3.00;;
19907;SDS011;10116;53.112;7.356;2022-11-20T11:10:17;3.53;;;2.87;;
19907;SDS011;10116;53.112;7.356;2022-11-20T11:12:45;14.20;;;3.40;;
19907;SDS011;10116;53.112;7.356;2022-11-20T11:15:28;3.83;;;2.87;;
19907;SDS011;10116;53.112;7.356;2022-11-20T11:18:05;15.17;;;3.10;;
19907;SDS011;10116;53.112;7.356;2022-11-20T11:20:34;13.50;;;4.17;;
19907;SDS011;10116;53.112;7.356;2022-11-20T11:23:01;9.40;;;4.30;;
19907;SDS011;10116;53.112;7.356;2022-11-20T11:27:59;11.53;;;4.03;;
19907;SDS011;10116;53.112;7.356;2022-11-20T11:30:27;14.03;;;4.37;;
19907;SDS011;10116;53.112;7.356;2022-11-20T11:33:05;10.83;;;3.77;;
19907;SDS011;10116;53.112;7.356;2022-11-20T11:35:38;6.20;;;3.80;;
19907;SDS011;10116;53.112;7.356;2022-11-20T11:38:13;9.90;;;3.70;;
19907;SDS011;10116;53.112;7.356;2022-11-20T11:40:59;13.83;;;3.60;;
19907;SDS011;10116;53.112;7.356;2022-11-20T11:43:26;16.13;;;5.00;;
19907;SDS011;10116;53.112;7.356;2022-11-20T11:46:27;9.23;;;3.87;;
19907;SDS011;10116;53.112;7.356;2022-11-20T11:54:22;14.97;;;3.77;;
19907;SDS011;10116;53.112;7.356;2022-11-20T11:56:51;22.47;;;4.03;;
19907;SDS011;10116;53.112;7.356;2022-11-20T11:59:28;10.97;;;3.67;;
19907;SDS011;10116;53.112;7.356;2022-11-20T12:02:24;27.07;;;4.13;;
19907;SDS011;10116;53.112;7.356;2022-11-20T12:05:08;12.73;;;3.80;;
19907;SDS011;10116;53.112;7.356;2022-11-20T12:07:50;5.90;;;3.83;;
19907;SDS011;10116;53.112;7.356;2022-11-20T12:16:17;9.83;;;3.57;;
19907;SDS011;10116;53.112;7.356;2022-11-20T12:18:45;14.10;;;3.27;;
19907;SDS011;10116;53.112;7.356;2022-11-20T12:24:04;7.50;;;3.57;;
19907;SDS011;10116;53.112;7.356;2022-11-20T12:26:35;14.10;;;3.90;;
19907;SDS011;10116;53.112;7.356;2022-11-20T12:34:40;16.93;;;3.23;;
19907;SDS011;10116;53.112;7.356;2022-11-20T13:07:08;15.53;;;3.53;;
19907;SDS011;10116;53.112;7.356;2022-11-20T13:09:37;20.43;;;3.90;;
19907;SDS011;10116;53.112;7.356;2022-11-20T13:17:41;19.70;;;2.93;;
19907;SDS011;10116;53.112;7.356;2022-11-20T13:20:22;6.47;;;2.80;;
19907;SDS011;10116;53.112;7.356;2022-11-20T13:22:49;6.83;;;3.27;;
19907;SDS011;10116;53.112;7.356;2022-11-20T13:25:42;12.80;;;3.07;;
19907;SDS011;10116;53.112;7.356;2022-11-20T13:30:34;8.83;;;3.40;;
19907;SDS011;10116;53.112;7.356;2022-11-20T13:35:33;12.20;;;3.20;;
19907;SDS011;10116;53.112;7.356;2022-11-20T13:40:31;12.07;;;3.00;;
19907;SDS011;10116;53.112;7.356;2022-11-20T13:46:00;4.90;;;2.70;;
19907;SDS011;10116;53.112;7.356;2022-11-20T13:48:33;5.10;;;2.33;;
19907;SDS011;10116;53.112;7.356;2022-11-20T14:02:08;4.13;;;2.60;;
19907;SDS011;10116;53.112;7.356;2022-11-20T14:04:42;7.80;;;2.70;;
19907;SDS011;10116;53.112;7.356;2022-11-20T14:07:10;5.70;;;2.93;;
19907;SDS011;10116;53.112;7.356;2022-11-20T14:09:37;3.67;;;2.70;;
19907;SDS011;10116;53.112;7.356;2022-11-20T14:12:03;7.60;;;2.93;;
19907;SDS011;10116;53.112;7.356;2022-11-20T14:14:50;2.93;;;2.30;;
19907;SDS011;10116;53.112;7.356;2022-11-20T14:19:43;4.80;;;2.47;;
19907;SDS011;10116;53.112;7.356;2022-11-20T14:24:38;6.37;;;2.80;;
19907;SDS011;10116;53.112;7.356;2022-11-20T14:27:04;4.67;;;2.63;;
19907;SDS011;10116;53.112;7.356;2022-11-20T14:29:36;7.13;;;2.70;;
19907;SDS011;10116;53.112;7.356;2022-11-20T14:32:03;8.40;;;2.87;;
19907;SDS011;10116;53.112;7.356;2022-11-20T14:34:30;3.00;;;2.40;;
19907;SDS011;10116;53.112;7.356;2022-11-20T14:36:59;4.83;;;2.40;;
19907;SDS011;10116;53.112;7.356;2022-11-20T14:39:34;2.80;;;2.60;;
19907;SDS011;10116;53.112;7.356;2022-11-20T14:42:01;3.90;;;2.60;;
19907;SDS011;10116;53.112;7.356;2022-11-20T14:44:39;6.70;;;2.70;;
19907;SDS011;10116;53.112;7.356;2022-11-20T14:47:06;2.80;;;2.60;;
19907;SDS011;10116;53.112;7.356;2022-11-20T14:49:35;4.40;;;2.87;;
19907;SDS011;10116;53.112;7.356;2022-11-20T14:52:09;2.83;;;2.53;;
19907;SDS011;10116;53.112;7.356;2022-11-20T14:54:45;4.40;;;2.80;;
19907;SDS011;10116;53.112;7.356;2022-11-20T15:00:17;3.63;;;2.63;;
19907;SDS011;10116;53.112;7.356;2022-11-20T15:02:45;3.10;;;2.40;;
19907;SDS011;10116;53.112;7.356;2022-11-20T15:05:13;2.90;;;2.70;;
19907;SDS011;10116;53.112;7.356;2022-11-20T15:07:40;2.50;;;2.30;;
19907;SDS011;10116;53.112;7.356;2022-11-20T15:10:11;2.90;;;2.70;;
19907;SDS011;10116;53.112;7.356;2022-11-20T15:15:16;2.80;;;2.60;;
19907;SDS011;10116;53.112;7.356;2022-11-20T15:17:49;3.60;;;3.30;;
19907;SDS011;10116;53.112;7.356;2022-11-20T15:20:16;3.27;;;2.27;;
19907;SDS011;10116;53.112;7.356;2022-11-20T15:22:42;2.80;;;2.60;;
19907;SDS011;10116;53.112;7.356;2022-11-20T15:25:17;3.73;;;2.90;;
19907;SDS011;10116;53.112;7.356;2022-11-20T15:27:44;2.43;;;2.23;;
19907;SDS011;10116;53.112;7.356;2022-11-20T15:30:18;3.60;;;2.53;;
19907;SDS011;10116;53.112;7.356;2022-11-20T15:32:45;2.67;;;2.57;;
19907;SDS011;10116;53.112;7.356;2022-11-20T15:35:12;4.00;;;3.10;;
19907;SDS011;10116;53.112;7.356;2022-11-20T15:37:38;2.90;;;2.70;;
19907;SDS011;10116;53.112;7.356;2022-11-20T15:40:05;3.07;;;2.87;;
19907;SDS011;10116;53.112;7.356;2022-11-20T15:42:31;4.07;;;2.70;;
19907;SDS011;10116;53.112;7.356;2022-11-20T15:44:57;5.23;;;2.50;;
19907;SDS011;10116;53.112;7.356;2022-11-20T15:47:25;3.87;;;3.00;;
19907;SDS011;10116;53.112;7.356;2022-11-20T15:49:55;3.37;;;3.07;;
19907;SDS011;10116;53.112;7.356;2022-11-20T15:52:21;3.53;;;3.30;;
19907;SDS011;10116;53.112;7.356;2022-11-20T15:54:47;2.80;;;2.67;;
19907;SDS011;10116;53.112;7.356;2022-11-20T15:57:12;3.53;;;2.73;;
19907;SDS011;10116;53.112;7.356;2022-11-20T15:59:38;3.17;;;2.77;;
19907;SDS011;10116;53.112;7.356;2022-11-20T16:02:13;3.33;;;3.10;;
19907;SDS011;10116;53.112;7.356;2022-11-20T16:04:39;2.67;;;2.40;;
19907;SDS011;10116;53.112;7.356;2022-11-20T16:07:05;2.93;;;2.63;;
19907;SDS011;10116;53.112;7.356;2022-11-20T16:09:31;3.33;;;3.13;;
19907;SDS011;10116;53.112;7.356;2022-11-20T16:11:57;2.73;;;2.53;;
19907;SDS011;10116;53.112;7.356;2022-11-20T16:14:26;2.73;;;2.53;;
19907;SDS011;10116;53.112;7.356;2022-11-20T16:17:10;5.83;;;2.87;;
19907;SDS011;10116;53.112;7.356;2022-11-20T16:19:36;2.80;;;2.50;;
19907;SDS011;10116;53.112;7.356;2022-11-20T16:22:02;2.60;;;2.40;;
19907;SDS011;10116;53.112;7.356;2022-11-20T16:24:28;3.93;;;2.93;;
19907;SDS011;10116;53.112;7.356;2022-11-20T16:26:54;4.60;;;2.70;;
19907;SDS011;10116;53.112;7.356;2022-11-20T16:29:20;2.90;;;2.70;;
19907;SDS011;10116;53.112;7.356;2022-11-20T16:31:46;3.00;;;2.80;;
19907;SDS011;10116;53.112;7.356;2022-11-20T16:34:12;2.87;;;2.67;;
19907;SDS011;10116;53.112;7.356;2022-11-20T16:36:40;3.10;;;2.90;;
19907;SDS011;10116;53.112;7.356;2022-11-20T16:39:07;2.70;;;2.50;;
19907;SDS011;10116;53.112;7.356;2022-11-20T16:41:33;2.20;;;2.10;;
19907;SDS011;10116;53.112;7.356;2022-11-20T16:44:00;2.73;;;2.53;;
19907;SDS011;10116;53.112;7.356;2022-11-20T16:46:28;2.80;;;2.63;;
19907;SDS011;10116;53.112;7.356;2022-11-20T16:48:58;3.23;;;2.87;;
19907;SDS011;10116;53.112;7.356;2022-11-20T16:51:26;2.97;;;2.77;;
19907;SDS011;10116;53.112;7.356;2022-11-20T16:53:54;2.57;;;2.37;;
19907;SDS011;10116;53.112;7.356;2022-11-20T16:56:21;3.07;;;2.60;;
19907;SDS011;10116;53.112;7.356;2022-11-20T16:58:49;2.90;;;2.70;;
19907;SDS011;10116;53.112;7.356;2022-11-20T17:01:16;2.73;;;2.53;;